createdAt,value
2022-11-04T00:02:36.507Z,9.90
2022-11-04T00:08:01.365Z,10.30
2022-11-04T00:13:07.361Z,10.00
2022-11-04T00:18:13.583Z,9.20
2022-11-04T00:23:38.245Z,9.50
2022-11-04T00:28:44.348Z,9.30
2022-11-04T00:33:51.992Z,9.30
2022-11-04T00:38:58.190Z,9.20
2022-11-04T00:44:05.508Z,9.40
2022-11-04T00:49:12.933Z,9.00
2022-11-04T00:54:18.654Z,9.70
2022-11-04T00:59:24.452Z,9.40
2022-11-04T01:04:30.568Z,9.00
2022-11-04T01:09:36.526Z,9.10
2022-11-04T01:14:42.239Z,9.90
2022-11-04T01:19:48.487Z,9.50
2022-11-04T01:24:54.399Z,8.90
2022-11-04T01:30:00.052Z,8.80
2022-11-04T01:35:07.124Z,9.80
2022-11-04T01:40:13.449Z,9.90
2022-11-04T01:45:21.528Z,8.30
2022-11-04T01:50:31.036Z,8.40
2022-11-04T01:55:41.963Z,8.60
2022-11-04T02:00:48.574Z,9.00
2022-11-04T02:05:55.841Z,8.60
2022-11-04T02:11:04.068Z,8.30
2022-11-04T02:16:19.521Z,7.50
2022-11-04T02:21:55.170Z,8.70
2022-11-04T02:27:24.324Z,7.60
2022-11-04T02:32:42.635Z,7.10
2022-11-04T02:37:56.639Z,7.60
2022-11-04T02:43:12.516Z,6.90
2022-11-04T02:48:27.384Z,7.90
2022-11-04T02:53:39.726Z,8.50
2022-11-04T02:58:52.210Z,7.60
2022-11-04T03:04:06.625Z,8.10
2022-11-04T03:09:15.356Z,7.00
2022-11-04T03:14:27.489Z,8.00
2022-11-04T03:19:42.620Z,7.30
2022-11-04T03:24:50.108Z,8.40
2022-11-04T03:30:01.586Z,8.10
2022-11-04T03:40:15.143Z,8.20
2022-11-04T03:45:21.074Z,7.50
2022-11-04T03:50:29.744Z,7.60
2022-11-04T03:55:46.700Z,8.60
2022-11-04T04:01:00.373Z,7.90
2022-11-04T04:06:15.531Z,7.20
2022-11-04T04:11:28.130Z,8.70
2022-11-04T04:16:38.878Z,8.10
2022-11-04T04:21:49.977Z,7.90
2022-11-04T04:27:16.351Z,7.90
2022-11-04T04:32:27.114Z,8.30
2022-11-04T04:42:58.330Z,7.90
2022-11-04T04:48:05.739Z,7.30
2022-11-04T04:53:12.711Z,8.40
2022-11-04T04:58:18.576Z,6.40
2022-11-04T05:03:26.521Z,7.40
2022-11-04T05:08:32.308Z,7.60
2022-11-04T05:13:38.259Z,7.60
2022-11-04T05:18:44.565Z,7.50
2022-11-04T05:23:50.821Z,7.50
2022-11-04T05:28:56.829Z,7.10
2022-11-04T05:34:02.893Z,6.80
2022-11-04T05:39:11.238Z,8.00
2022-11-04T05:44:17.539Z,8.00
2022-11-04T05:49:23.809Z,8.00
2022-11-04T05:54:29.886Z,7.00
2022-11-04T05:59:35.989Z,7.90
2022-11-04T06:04:41.980Z,8.20
2022-11-04T06:09:48.620Z,6.70
2022-11-04T06:14:54.609Z,7.70
2022-11-04T06:20:00.819Z,7.80
2022-11-04T06:25:10.738Z,8.00
2022-11-04T06:30:17.534Z,7.50
2022-11-04T06:35:23.472Z,7.50
2022-11-04T06:40:29.501Z,7.90
2022-11-04T06:45:35.700Z,7.20
2022-11-04T06:50:41.922Z,7.40
2022-11-04T06:55:48.293Z,8.00
2022-11-04T07:00:54.599Z,8.20
2022-11-04T07:06:05.399Z,7.40
2022-11-04T07:11:11.892Z,7.90
2022-11-04T07:16:18.859Z,7.80
2022-11-04T07:21:25.144Z,8.00
2022-11-04T07:26:31.115Z,8.30
2022-11-04T07:31:37.047Z,9.10
2022-11-04T07:36:43.411Z,9.10
2022-11-04T07:41:49.241Z,9.00
2022-11-04T07:46:55.503Z,8.80
2022-11-04T07:52:01.374Z,8.60
2022-11-04T07:57:07.470Z,11.00
2022-11-04T08:02:13.518Z,9.40
2022-11-04T08:07:20.914Z,8.70
2022-11-04T08:12:28.056Z,8.30
2022-11-04T08:17:36.079Z,8.40
2022-11-04T08:22:43.395Z,9.00
2022-11-04T08:27:49.587Z,8.90
2022-11-04T08:32:55.468Z,8.20
2022-11-04T08:38:01.706Z,8.00
2022-11-04T08:43:08.826Z,9.00
2022-11-04T08:48:17.567Z,13.80
2022-11-04T08:53:24.049Z,9.80
2022-11-04T08:58:30.153Z,15.20
2022-11-04T09:03:37.689Z,10.10
2022-11-04T09:08:44.517Z,9.30
2022-11-04T09:13:51.068Z,9.20
2022-11-04T09:18:58.348Z,10.90
2022-11-04T09:24:04.578Z,9.30
2022-11-04T09:29:10.902Z,9.00
2022-11-04T09:34:18.092Z,8.50
2022-11-04T09:39:27.074Z,9.50
2022-11-04T09:45:07.339Z,9.40
2022-11-04T09:50:21.169Z,10.00
2022-11-04T09:55:35.835Z,9.10
2022-11-04T10:00:47.325Z,9.10
2022-11-04T10:06:08.400Z,9.00
2022-11-04T10:11:21.593Z,9.50
2022-11-04T10:16:44.840Z,9.20
2022-11-04T10:22:02.210Z,8.80
2022-11-04T10:27:16.011Z,9.90
2022-11-04T10:32:26.448Z,10.20
2022-11-04T10:37:34.578Z,9.30
2022-11-04T10:42:41.395Z,9.00
2022-11-04T10:47:56.552Z,9.00
2022-11-04T10:53:14.525Z,7.60
2022-11-04T10:58:24.721Z,8.00
2022-11-04T11:03:33.305Z,8.70
2022-11-04T11:08:39.790Z,8.80
2022-11-04T11:13:47.444Z,10.10
2022-11-04T11:19:17.681Z,8.60
2022-11-04T11:24:26.279Z,8.70
2022-11-04T11:29:40.466Z,11.20
2022-11-04T11:34:48.958Z,10.00
2022-11-04T11:39:54.940Z,8.80
2022-11-04T11:45:05.177Z,8.40
2022-11-04T11:50:18.325Z,9.00
2022-11-04T11:55:27.729Z,8.20
2022-11-04T12:00:40.250Z,7.80
2022-11-04T12:11:28.856Z,7.50
2022-11-04T12:16:44.061Z,7.60
2022-11-04T12:22:00.925Z,6.90
2022-11-04T12:27:14.263Z,7.20
2022-11-04T12:32:33.999Z,7.10
2022-11-04T12:37:50.538Z,7.10
2022-11-04T12:43:07.644Z,8.20
2022-11-04T12:48:26.582Z,15.60
2022-11-04T12:53:45.042Z,11.60
2022-11-04T12:59:08.784Z,7.40
2022-11-04T13:15:52.524Z,8.20
2022-11-04T13:21:03.349Z,22.10
2022-11-04T13:26:14.703Z,22.90
2022-11-04T13:36:40.342Z,8.20
2022-11-04T13:42:15.243Z,8.70
2022-11-04T13:47:27.020Z,9.10
2022-11-04T13:52:52.375Z,27.00
2022-11-04T13:58:01.997Z,13.40
2022-11-04T14:03:40.891Z,9.00
2022-11-04T14:09:18.469Z,10.90
2022-11-04T14:14:24.481Z,13.20
2022-11-04T14:20:00.880Z,9.10
2022-11-04T14:25:34.712Z,10.90
2022-11-04T14:30:49.000Z,8.10
2022-11-04T14:35:57.734Z,11.30
2022-11-04T14:41:23.845Z,9.90
2022-11-04T14:46:33.943Z,14.10
2022-11-04T14:51:42.926Z,13.60
2022-11-04T14:56:49.139Z,15.50
2022-11-04T15:01:56.103Z,13.60
2022-11-04T15:07:04.694Z,12.40
2022-11-04T15:12:33.540Z,10.30
2022-11-04T15:17:39.555Z,10.70
2022-11-04T15:22:47.828Z,11.80
2022-11-04T15:27:54.168Z,13.20
2022-11-04T15:33:02.438Z,12.70
2022-11-04T15:38:13.050Z,10.40
2022-11-04T15:43:20.028Z,11.50
2022-11-04T15:48:33.962Z,12.70
2022-11-04T15:53:50.875Z,10.50
2022-11-04T15:58:59.591Z,11.70
2022-11-04T16:04:07.533Z,13.30
2022-11-04T16:09:29.059Z,12.00
2022-11-04T16:14:35.031Z,12.30
2022-11-04T16:19:44.989Z,12.70
2022-11-04T16:24:54.036Z,12.50
2022-11-04T16:30:06.984Z,14.80
2022-11-04T16:35:19.399Z,12.60
2022-11-04T16:40:25.949Z,14.70
2022-11-04T16:45:34.781Z,20.70
2022-11-04T16:50:41.610Z,14.60
2022-11-04T16:55:47.698Z,11.60
2022-11-04T17:00:53.785Z,11.10
2022-11-04T17:05:59.939Z,14.50
2022-11-04T17:11:06.269Z,14.90
2022-11-04T17:16:15.192Z,12.40
2022-11-04T17:21:23.307Z,13.40
2022-11-04T17:26:29.408Z,12.90
2022-11-04T17:31:35.254Z,11.40
2022-11-04T17:36:41.526Z,17.40
2022-11-04T17:42:07.167Z,18.40
2022-11-04T17:47:13.092Z,14.90
2022-11-04T17:52:19.104Z,14.10
2022-11-04T17:57:24.910Z,14.20
2022-11-04T18:02:31.083Z,16.90
2022-11-04T18:07:37.369Z,14.30
2022-11-04T18:12:43.542Z,12.00
2022-11-04T18:17:51.121Z,12.20
2022-11-04T18:22:58.785Z,11.80
2022-11-04T18:28:05.061Z,16.60
2022-11-04T18:33:11.479Z,15.70
2022-11-04T18:38:17.824Z,17.70
2022-11-04T18:43:23.868Z,17.10
2022-11-04T18:48:29.796Z,18.70
2022-11-04T18:53:36.526Z,15.70
2022-11-04T18:58:45.194Z,14.40
2022-11-04T19:03:51.745Z,15.50
2022-11-04T19:09:05.127Z,16.40
2022-11-04T19:14:18.896Z,17.30
2022-11-04T19:19:24.839Z,14.90
2022-11-04T19:24:30.861Z,13.60
2022-11-04T19:29:36.956Z,12.50
2022-11-04T19:34:43.535Z,15.10
2022-11-04T19:39:49.555Z,12.60
2022-11-04T19:44:55.353Z,13.00
2022-11-04T19:50:01.371Z,13.20
2022-11-04T19:55:08.719Z,13.50
2022-11-04T20:00:15.217Z,12.30
2022-11-04T20:05:21.286Z,11.60
2022-11-04T20:10:27.344Z,11.50
2022-11-04T20:15:33.388Z,11.90
2022-11-04T20:20:39.241Z,10.20
2022-11-04T20:25:45.852Z,12.10
2022-11-04T20:30:51.968Z,11.10
2022-11-04T20:35:58.000Z,11.60
2022-11-04T20:41:10.420Z,10.60
2022-11-04T20:46:18.466Z,11.60
2022-11-04T20:51:28.871Z,12.20
2022-11-04T20:56:37.029Z,10.60
2022-11-04T21:01:46.603Z,10.30
2022-11-04T21:06:53.222Z,12.70
2022-11-04T21:11:59.377Z,13.60
2022-11-04T21:17:05.854Z,15.50
2022-11-04T21:22:11.849Z,12.90
2022-11-04T21:27:17.971Z,13.90
2022-11-04T21:32:23.765Z,15.20
2022-11-04T21:37:33.527Z,13.40
2022-11-04T21:42:42.473Z,13.40
2022-11-04T21:47:48.681Z,11.80
2022-11-04T21:52:54.473Z,13.20
2022-11-04T21:58:00.565Z,14.40
2022-11-04T22:03:06.548Z,13.00
2022-11-04T22:08:18.356Z,11.80
2022-11-04T22:13:24.647Z,16.20
2022-11-04T22:18:32.349Z,15.40
2022-11-04T22:23:38.977Z,12.10
2022-11-04T22:28:46.649Z,12.90
2022-11-04T22:33:53.675Z,11.00
2022-11-04T22:39:00.147Z,11.70
2022-11-04T22:44:06.309Z,12.00
2022-11-04T22:49:14.507Z,12.80
2022-11-04T22:54:20.380Z,11.20
2022-11-04T22:59:26.288Z,11.10
2022-11-04T23:04:32.175Z,13.30
2022-11-04T23:09:57.191Z,12.40
2022-11-04T23:15:22.693Z,10.50
2022-11-04T23:20:29.746Z,11.00
2022-11-04T23:25:35.783Z,11.60
2022-11-04T23:30:44.353Z,11.20
2022-11-04T23:36:09.360Z,11.30
2022-11-04T23:41:34.413Z,10.50
2022-11-04T23:46:59.552Z,9.60
2022-11-04T23:52:24.942Z,12.40
2022-11-04T23:57:49.479Z,10.30
